Time;durP1;ratioP1;P1;durP2;ratioP2;P2;SDS_P1;SDS_P2;PMS_P1;PMS_P2;Temp;Humidity;BMP_temperature;BMP_pressure;BME280_temperature;BME280_humidity;BME280_pressure;Samples;Min_cycle;Max_cycle;Signal;HPM_P1;HPM_P2
2022/09/20 00:00:42;;;;;;;4.60;1.70;;;11.80;1.00;;;;;;5042104;28;20932;-76
2022/09/20 00:03:09;;;;;;;8.57;1.60;;;11.80;1.00;;;;;;5054113;28;20422;-76
2022/09/20 00:05:37;;;;;;;13.17;1.83;;;11.80;1.00;;;;;;5054582;28;20794;-75
2022/09/20 00:08:07;;;;;;;8.53;2.20;;;11.70;1.00;;;;;;5058543;28;20467;-76
2022/09/20 00:10:38;;;;;;;7.47;1.93;;;11.80;1.00;;;;;;5054370;28;20391;-76
2022/09/20 00:13:08;;;;;;;11.40;1.87;;;11.70;1.00;;;;;;5058339;28;20995;-75
2022/09/20 00:15:53;;;;;;;3.93;2.00;;;11.60;1.00;;;;;;5041791;28;20509;-82
2022/09/20 00:18:19;;;;;;;6.47;1.87;;;11.60;1.00;;;;;;5053354;28;20453;-82
2022/09/20 00:21:36;;;;;;;4.00;1.73;;;11.60;1.00;;;;;;5043839;28;20448;-82
2022/09/20 00:24:47;;;;;;;4.30;1.63;;;11.50;1.00;;;;;;5047107;28;20172;-82
2022/09/20 00:27:17;;;;;;;5.60;1.67;;;11.50;1.00;;;;;;5047565;28;20417;-82
2022/09/20 00:30:03;;;;;;;5.27;1.80;;;11.30;1.00;;;;;;5044821;28;20429;-82
2022/09/20 00:32:42;;;;;;;8.43;1.80;;;11.30;1.00;;;;;;5035395;28;21020;-75
2022/09/20 00:35:09;;;;;;;4.17;1.50;;;11.20;1.00;;;;;;5034136;28;20552;-75
2022/09/20 00:37:39;;;;;;;3.83;1.87;;;11.20;1.00;;;;;;5053889;28;20414;-76
2022/09/20 00:40:07;;;;;;;4.43;1.70;;;11.20;1.00;;;;;;5044178;28;20930;-75
2022/09/20 00:42:34;;;;;;;6.80;2.27;;;11.20;1.00;;;;;;5054201;28;20523;-75
2022/09/20 00:45:05;;;;;;;3.63;1.40;;;11.10;1.00;;;;;;5050636;28;20414;-75
2022/09/20 00:47:52;;;;;;;11.67;1.73;;;11.10;1.00;;;;;;5053937;28;20418;-83
2022/09/20 00:50:55;;;;;;;7.30;1.20;;;11.00;1.00;;;;;;5036572;28;20467;-82
2022/09/20 00:56:48;;;;;;;8.03;1.40;;;10.90;1.00;;;;;;5053868;28;20429;-83
2022/09/20 00:59:33;;;;;;;4.30;1.90;;;10.70;1.00;;;;;;5053481;28;20466;-83
2022/09/20 01:02:37;;;;;;;5.17;1.50;;;10.70;1.00;;;;;;5043699;28;20402;-83
2022/09/20 01:05:08;;;;;;;6.27;1.87;;;10.60;1.00;;;;;;5033839;28;20392;-83
2022/09/20 01:07:36;;;;;;;7.57;2.03;;;10.50;1.00;;;;;;5044500;28;20410;-83
2022/09/20 01:10:17;;;;;;;6.03;2.40;;;10.40;1.00;;;;;;5033599;28;20959;-83
2022/09/20 01:12:45;;;;;;;11.70;2.10;;;10.30;1.00;;;;;;5047114;28;20435;-83
2022/09/20 01:15:28;;;;;;;6.30;2.33;;;10.30;1.00;;;;;;5047077;28;20989;-83
2022/09/20 01:17:59;;;;;;;3.93;2.23;;;10.20;1.00;;;;;;5050835;28;20522;-76
2022/09/20 01:20:31;;;;;;;5.00;1.90;;;10.20;1.00;;;;;;5049544;28;20429;-76
2022/09/20 01:23:11;;;;;;;12.67;2.17;;;10.10;1.00;;;;;;5039701;28;20479;-76
2022/09/20 01:25:59;;;;;;;10.43;2.70;;;10.00;1.00;;;;;;5054227;28;20751;-76
2022/09/20 01:28:30;;;;;;;6.30;2.17;;;10.00;1.00;;;;;;5044634;28;20415;-76
2022/09/20 01:31:11;;;;;;;14.90;3.20;;;10.00;1.00;;;;;;5044781;28;20529;-83
2022/09/20 01:33:46;;;;;;;12.53;3.00;;;9.90;1.00;;;;;;5057523;28;20446;-83
2022/09/20 01:36:32;;;;;;;3.97;2.30;;;9.80;1.00;;;;;;5047443;28;20454;-83
2022/09/20 01:39:17;;;;;;;13.93;2.77;;;9.80;1.00;;;;;;5056890;28;20471;-83
2022/09/20 01:41:56;;;;;;;4.93;2.03;;;9.70;1.00;;;;;;5057587;28;20457;-83
2022/09/20 01:44:54;;;;;;;8.47;3.53;;;9.70;1.00;;;;;;5046317;28;20410;-83
2022/09/20 01:51:03;;;;;;;9.37;3.90;;;9.70;1.00;;;;;;5045445;28;20366;-83
2022/09/20 01:53:53;;;;;;;13.27;3.43;;;9.60;1.00;;;;;;5053464;28;20427;-83
2022/09/20 01:56:56;;;;;;;5.87;3.10;;;9.70;1.00;;;;;;5042935;28;20482;-83
2022/09/20 02:00:07;;;;;;;7.60;2.90;;;9.60;1.00;;;;;;5044490;28;20433;-83
2022/09/20 02:03:03;;;;;;;7.13;3.57;;;9.60;1.00;;;;;;4996072;28;20511;-84
2022/09/20 02:05:54;;;;;;;6.73;3.50;;;9.70;1.00;;;;;;4991076;28;20520;-83
2022/09/20 02:12:12;;;;;;;7.20;3.33;;;9.60;1.00;;;;;;4990999;28;20898;-83
2022/09/20 02:15:15;;;;;;;20.37;4.03;;;9.50;1.00;;;;;;4995573;28;20397;-84
2022/09/20 02:18:15;;;;;;;13.63;3.37;;;9.50;1.00;;;;;;4996009;28;20424;-76
2022/09/20 02:21:02;;;;;;;7.33;3.20;;;9.50;1.00;;;;;;4987035;28;20457;-76
2022/09/20 02:24:18;;;;;;;8.77;2.90;;;9.40;1.00;;;;;;4975873;28;20421;-76
2022/09/20 02:27:01;;;;;;;7.60;3.10;;;9.30;1.00;;;;;;4937339;29;20408;-76
2022/09/20 02:30:00;;;;;;;19.70;3.30;;;9.30;1.00;;;;;;4937286;29;20426;-76
2022/09/20 02:33:05;;;;;;;10.50;3.57;;;9.20;1.00;;;;;;4937814;29;20807;-85
2022/09/20 02:36:06;;;;;;;11.33;3.23;;;9.20;1.00;;;;;;4921078;29;20510;-83
2022/09/20 02:38:59;;;;;;;13.37;3.53;;;9.10;1.00;;;;;;4940911;29;20434;-83
2022/09/20 02:41:57;;;;;;;13.43;3.93;;;9.00;1.00;;;;;;4955099;28;20513;-83
2022/09/20 02:44:44;;;;;;;11.07;3.83;;;9.00;1.00;;;;;;4955988;29;20429;-83
2022/09/20 02:47:35;;;;;;;12.67;4.53;;;9.00;1.00;;;;;;4956838;28;20473;-83
2022/09/20 02:50:41;;;;;;;17.30;4.23;;;8.90;1.00;;;;;;4943242;29;20458;-83
2022/09/20 02:53:47;;;;;;;16.30;4.20;;;8.80;1.00;;;;;;4955794;29;20945;-83
2022/09/20 02:56:34;;;;;;;10.87;3.47;;;8.80;1.00;;;;;;4955883;29;20910;-83
2022/09/20 03:02:43;;;;;;;17.70;3.27;;;8.80;1.00;;;;;;5055776;28;20761;-77
2022/09/20 03:05:46;;;;;;;8.97;3.40;;;8.80;1.00;;;;;;5041377;28;20781;-77
2022/09/20 03:08:32;;;;;;;17.37;3.53;;;8.70;1.00;;;;;;5049553;28;20418;-76
2022/09/20 03:11:53;;;;;;;9.27;3.30;;;8.70;1.00;;;;;;5045872;28;20410;-77
2022/09/20 03:14:37;;;;;;;14.13;2.97;;;8.70;1.00;;;;;;5046702;28;20414;-77
2022/09/20 03:17:22;;;;;;;14.53;3.20;;;8.60;1.00;;;;;;5049184;28;20423;-83
2022/09/20 03:20:19;;;;;;;11.23;3.27;;;8.60;1.00;;;;;;5052135;28;20410;-83
2022/09/20 03:26:18;;;;;;;10.47;3.83;;;8.60;1.00;;;;;;5055212;28;20441;-84
2022/09/20 03:29:11;;;;;;;11.00;3.20;;;8.40;1.00;;;;;;5055362;28;20932;-83
2022/09/20 03:31:56;;;;;;;18.30;3.23;;;8.40;1.00;;;;;;5035959;28;20826;-82
2022/09/20 03:35:19;;;;;;;13.90;3.10;;;8.40;1.00;;;;;;5054779;28;20758;-76
2022/09/20 03:38:03;;;;;;;14.67;2.93;;;8.40;1.00;;;;;;5012890;28;20416;-77
2022/09/20 03:40:41;;;;;;;12.57;3.63;;;8.30;1.00;;;;;;5018605;28;20767;-77
2022/09/20 03:43:36;;;;;;;12.80;3.30;;;8.20;1.00;;;;;;5016074;28;20530;-77
2022/09/20 03:46:25;;;;;;;10.57;2.90;;;8.20;1.00;;;;;;5032855;28;20411;-77
2022/09/20 03:49:03;;;;;;;8.67;3.07;;;8.20;1.00;;;;;;5026522;28;20411;-76
2022/09/20 03:51:42;;;;;;;8.70;3.40;;;8.10;1.00;;;;;;5032982;28;20917;-76
2022/09/20 03:54:12;;;;;;;9.93;3.50;;;8.10;1.00;;;;;;5014112;28;20525;-76
2022/09/20 03:56:57;;;;;;;16.40;3.53;;;8.10;1.00;;;;;;5012839;28;20468;-76
2022/09/20 03:59:47;;;;;;;18.93;3.70;;;8.00;1.00;;;;;;5012475;28;20495;-76
2022/09/20 04:02:53;;;;;;;16.67;3.20;;;7.90;1.00;;;;;;5017641;28;20445;-77
2022/09/20 04:05:35;;;;;;;16.53;3.70;;;7.90;1.00;;;;;;5015401;28;20888;-76
2022/09/20 04:08:11;;;;;;;11.70;3.30;;;7.90;1.00;;;;;;5026585;28;20419;-76
2022/09/20 04:10:47;;;;;;;25.37;3.77;;;7.90;1.00;;;;;;5047500;28;20901;-77
2022/09/20 04:13:37;;;;;;;14.93;3.70;;;7.80;1.00;;;;;;5044333;28;20430;-76
2022/09/20 04:16:17;;;;;;;21.83;4.30;;;7.80;1.00;;;;;;5046045;28;20453;-77
2022/09/20 04:18:55;;;;;;;11.27;3.30;;;7.80;1.00;;;;;;5038023;28;20426;-84
2022/09/20 04:21:44;;;;;;;7.80;3.73;;;7.80;1.00;;;;;;5054363;28;21313;-83
2022/09/20 04:24:30;;;;;;;12.67;4.30;;;7.70;1.00;;;;;;5054551;28;20409;-84
2022/09/20 04:27:26;;;;;;;13.93;4.03;;;7.70;1.00;;;;;;5043127;28;20520;-81
2022/09/20 04:30:20;;;;;;;17.13;4.40;;;7.80;1.00;;;;;;5007255;28;20432;-81
2022/09/20 04:33:22;;;;;;;13.67;3.77;;;7.70;2.90;;;;;;4995897;28;20530;-81
2022/09/20 04:36:29;;;;;;;7.83;3.43;;;7.70;4.10;;;;;;5011921;28;21097;-81
2022/09/20 04:39:16;;;;;;;14.97;4.40;;;7.80;5.00;;;;;;5012101;28;20412;-81
2022/09/20 04:42:26;;;;;;;15.00;4.30;;;7.80;7.90;;;;;;5012255;28;20416;-81
2022/09/20 04:49:05;;;;;;;19.97;4.97;;;7.80;10.20;;;;;;5009086;28;20431;-81
2022/09/20 04:51:57;;;;;;;13.03;4.70;;;7.80;11.40;;;;;;4999467;28;20416;-81
2022/09/20 04:54:44;;;;;;;13.37;4.30;;;7.80;12.70;;;;;;5009462;28;20420;-82
2022/09/20 04:57:35;;;;;;;13.83;4.73;;;7.80;13.70;;;;;;4995349;28;20429;-81
2022/09/20 05:00:15;;;;;;;9.23;4.60;;;7.80;14.60;;;;;;5011754;28;20404;-82
2022/09/20 05:03:20;;;;;;;16.63;5.37;;;7.80;15.30;;;;;;5012320;28;20811;-76
2022/09/20 05:06:28;;;;;;;18.47;6.47;;;7.90;15.90;;;;;;5020426;28;20417;-77
2022/09/20 05:09:15;;;;;;;9.30;4.63;;;7.90;17.30;;;;;;5040240;28;20410;-77
2022/09/20 05:11:49;;;;;;;10.67;4.70;;;7.90;18.30;;;;;;5040008;28;20414;-77
2022/09/20 05:14:41;;;;;;;19.60;4.80;;;7.90;16.90;;;;;;5053226;28;20429;-77
2022/09/20 05:17:40;;;;;;;16.43;4.90;;;8.00;18.40;;;;;;5046875;28;20584;-76
2022/09/20 05:20:15;;;;;;;17.23;5.30;;;8.00;19.00;;;;;;5045711;28;20479;-81
2022/09/20 05:22:56;;;;;;;29.40;5.20;;;8.20;18.20;;;;;;5044379;28;20931;-76
2022/09/20 05:25:46;;;;;;;14.23;4.90;;;8.20;18.50;;;;;;5052555;28;20421;-81
2022/09/20 05:28:37;;;;;;;21.70;5.93;;;8.30;17.30;;;;;;5036542;28;20419;-81
2022/09/20 05:31:20;;;;;;;16.80;5.80;;;8.50;16.70;;;;;;5048943;28;20769;-81
2022/09/20 05:34:38;;;;;;;7.00;4.53;;;8.50;14.60;;;;;;5056906;28;20477;-81
2022/09/20 05:37:31;;;;;;;7.50;4.33;;;8.60;14.60;;;;;;5045088;28;20453;-81
2022/09/20 05:40:15;;;;;;;13.23;5.13;;;8.70;13.50;;;;;;5045089;28;20437;-80
2022/09/20 05:43:15;;;;;;;22.27;6.00;;;8.80;12.90;;;;;;5039164;28;20434;-84
2022/09/20 05:46:01;;;;;;;17.90;5.20;;;8.90;12.60;;;;;;5049342;28;20422;-84
2022/09/20 05:48:31;;;;;;;16.67;4.93;;;9.00;12.80;;;;;;5053927;28;20397;-78
2022/09/20 05:51:06;;;;;;;10.70;4.60;;;9.10;12.70;;;;;;5046058;28;20423;-79
2022/09/20 05:53:53;;;;;;;17.37;5.20;;;9.20;14.60;;;;;;5033434;28;20387;-78
2022/09/20 05:56:51;;;;;;;14.97;4.80;;;9.30;16.60;;;;;;5043006;28;20861;-79
2022/09/20 05:59:53;;;;;;;9.20;4.97;;;9.40;14.40;;;;;;4965825;28;20445;-79
2022/09/20 06:03:05;;;;;;;13.20;4.87;;;9.50;16.70;;;;;;4975094;28;20457;-78
2022/09/20 06:06:05;;;;;;;12.40;5.87;;;9.70;14.70;;;;;;4975269;28;20420;-83
2022/09/20 06:09:05;;;;;;;18.50;6.23;;;9.80;14.60;;;;;;4963388;28;20530;-85
2022/09/20 06:15:35;;;;;;;12.20;7.13;;;10.10;13.90;;;;;;4962906;28;20485;-84
2022/09/20 06:18:32;;;;;;;14.10;6.93;;;10.20;10.50;;;;;;4958434;28;20434;-85
2022/09/20 06:21:30;;;;;;;17.07;8.07;;;10.40;9.00;;;;;;4976258;28;20521;-84
2022/09/20 06:23:59;;;;;;;27.20;8.30;;;10.50;8.50;;;;;;4964381;28;20929;-84
2022/09/20 06:26:35;;;;;;;20.63;7.53;;;10.60;5.80;;;;;;4971528;28;20421;-84
2022/09/20 06:29:10;;;;;;;27.43;8.20;;;10.70;5.00;;;;;;4971533;28;20524;-84
2022/09/20 06:32:07;;;;;;;13.33;7.30;;;10.90;1.00;;;;;;4959621;28;20444;-84
2022/09/20 06:34:36;;;;;;;17.83;7.40;;;11.00;1.00;;;;;;4964712;28;20505;-84
2022/09/20 06:43:26;;;;;;;19.53;6.17;;;11.30;1.00;;;;;;5053839;28;20490;-84
2022/09/20 06:45:52;;;;;;;11.37;5.37;;;11.50;1.00;;;;;;5046261;28;20494;-84
2022/09/20 06:48:18;;;;;;;18.73;6.23;;;11.70;1.00;;;;;;5037668;28;20415;-83
2022/09/20 06:50:48;;;;;;;10.63;5.10;;;11.90;1.00;;;;;;5049266;28;20262;-84
2022/09/20 06:53:38;;;;;;;22.20;6.63;;;12.00;1.00;;;;;;5049687;28;20184;-84
2022/09/20 06:56:22;;;;;;;8.57;5.23;;;12.30;1.00;;;;;;5053131;28;21041;-84
2022/09/20 06:58:48;;;;;;;11.60;5.60;;;12.50;1.00;;;;;;5042845;28;20419;-84
2022/09/20 07:01:35;;;;;;;14.50;5.80;;;12.60;1.00;;;;;;5037627;28;20411;-83
2022/09/20 07:04:06;;;;;;;17.57;6.33;;;12.70;1.00;;;;;;5036856;28;20415;-84
2022/09/20 07:06:32;;;;;;;16.70;5.53;;;12.90;1.00;;;;;;5037235;28;20411;-84
2022/09/20 07:09:00;;;;;;;11.83;5.30;;;13.10;1.00;;;;;;5037337;28;20446;-84
2022/09/20 07:11:26;;;;;;;10.70;5.57;;;13.30;1.00;;;;;;5040892;28;20410;-83
2022/09/20 07:14:06;;;;;;;11.10;5.33;;;13.20;1.00;;;;;;5047839;28;20817;-83
2022/09/20 07:16:37;;;;;;;12.67;5.20;;;13.40;1.00;;;;;;5049143;28;20454;-83
2022/09/20 07:19:05;;;;;;;12.73;5.47;;;13.50;1.00;;;;;;5036439;28;20498;-77
2022/09/20 07:21:36;;;;;;;17.37;5.50;;;13.40;1.00;;;;;;5042510;28;20403;-76
2022/09/20 07:24:06;;;;;;;17.10;5.10;;;13.50;1.00;;;;;;5055387;28;20889;-75
2022/09/20 07:26:32;;;;;;;12.93;5.10;;;13.70;1.00;;;;;;5036595;28;20425;-75
2022/09/20 07:29:06;;;;;;;9.43;5.47;;;13.70;1.00;;;;;;5041302;28;20517;-75
2022/09/20 07:31:32;;;;;;;11.33;5.67;;;13.80;1.00;;;;;;5040659;28;20515;-75
2022/09/20 07:34:00;;;;;;;20.33;5.90;;;13.70;1.00;;;;;;5046452;28;20975;-75
2022/09/20 07:36:36;;;;;;;10.37;6.00;;;13.90;1.00;;;;;;5037148;28;20215;-82
2022/09/20 07:39:06;;;;;;;15.37;5.47;;;13.90;1.00;;;;;;5036809;28;20420;-84
2022/09/20 07:41:36;;;;;;;15.13;5.33;;;14.00;1.00;;;;;;5037086;28;20403;-82
2022/09/20 07:44:23;;;;;;;9.47;5.73;;;14.00;1.00;;;;;;5047378;28;20430;-82
2022/09/20 07:46:58;;;;;;;15.47;5.37;;;14.00;1.00;;;;;;5052353;28;20749;-83
2022/09/20 07:49:27;;;;;;;9.20;4.90;;;14.10;1.00;;;;;;5043929;28;20414;-75
2022/09/20 07:51:53;;;;;;;10.73;5.30;;;14.20;1.00;;;;;;5053394;28;20416;-75
2022/09/20 07:54:19;;;;;;;18.27;7.53;;;14.30;1.00;;;;;;5052196;28;20414;-75
2022/09/20 07:56:45;;;;;;;9.90;5.13;;;14.40;1.00;;;;;;5052774;28;20187;-76
2022/09/20 07:59:18;;;;;;;12.30;5.80;;;14.50;1.00;;;;;;5034454;28;20464;-76
2022/09/20 08:01:48;;;;;;;10.70;5.13;;;14.70;1.00;;;;;;5038120;28;20407;-75
2022/09/20 08:04:14;;;;;;;8.20;4.90;;;14.60;1.00;;;;;;5045678;28;20414;-75
2022/09/20 08:07:05;;;;;;;13.63;4.60;;;14.60;1.00;;;;;;5034760;28;20428;-82
2022/09/20 08:09:36;;;;;;;10.80;4.47;;;14.80;1.00;;;;;;5035788;28;20180;-82
2022/09/20 08:12:07;;;;;;;9.50;4.77;;;14.90;1.00;;;;;;5035783;28;21008;-82
2022/09/20 08:14:36;;;;;;;14.20;5.47;;;14.90;1.00;;;;;;5034153;28;20441;-81
2022/09/20 08:17:35;;;;;;;9.60;4.50;;;15.00;1.00;;;;;;5036322;28;20385;-82
2022/09/20 08:20:06;;;;;;;10.80;4.23;;;15.10;1.00;;;;;;5053484;28;20377;-75
2022/09/20 08:22:33;;;;;;;8.30;4.40;;;15.10;1.00;;;;;;5041405;28;20377;-75
2022/09/20 08:24:59;;;;;;;7.90;4.57;;;15.10;1.00;;;;;;5045146;28;20406;-75
2022/09/20 08:27:25;;;;;;;12.40;4.77;;;15.00;1.00;;;;;;5044445;28;20783;-75
2022/09/20 08:29:51;;;;;;;8.70;4.23;;;15.10;1.00;;;;;;5040876;28;20207;-75
2022/09/20 08:32:17;;;;;;;13.20;4.43;;;15.20;1.00;;;;;;5053361;28;20179;-75
2022/09/20 08:35:06;;;;;;;9.37;4.63;;;15.30;1.00;;;;;;5053831;28;20622;-83
2022/09/20 08:41:12;;;;;;;11.40;4.50;;;15.30;1.00;;;;;;5039785;28;20405;-81
2022/09/20 08:44:24;;;;;;;9.63;4.33;;;15.50;1.00;;;;;;5051656;28;20410;-81
2022/09/20 08:47:08;;;;;;;11.30;4.47;;;15.50;1.00;;;;;;5046713;28;20413;-81
2022/09/20 08:50:06;;;;;;;8.03;4.10;;;15.50;1.00;;;;;;5043393;28;20459;-81
2022/09/20 08:52:52;;;;;;;8.37;3.77;;;15.60;1.00;;;;;;5034140;28;20415;-81
2022/09/20 08:55:26;;;;;;;4.87;3.87;;;15.70;1.00;;;;;;5035607;28;20450;-81
2022/09/20 08:57:59;;;;;;;6.87;3.10;;;15.70;1.00;;;;;;5053317;28;20962;-81
2022/09/20 09:01:11;;;;;;;10.50;3.50;;;15.70;1.00;;;;;;5049027;28;20422;-81
2022/09/20 09:04:15;;;;;;;5.77;2.80;;;15.60;1.00;;;;;;5033823;28;20410;-81
2022/09/20 09:07:13;;;;;;;5.43;3.10;;;15.80;1.00;;;;;;5049612;28;20416;-81
2022/09/20 09:10:17;;;;;;;7.83;3.20;;;16.00;1.00;;;;;;5050753;28;20410;-81
2022/09/20 09:12:45;;;;;;;7.23;3.23;;;16.00;1.00;;;;;;5045291;28;20471;-80
2022/09/20 09:18:36;;;;;;;9.83;3.00;;;16.10;1.00;;;;;;5034853;28;20461;-81
2022/09/20 09:21:03;;;;;;;9.63;3.30;;;16.00;1.00;;;;;;5046254;28;20414;-74
2022/09/20 09:23:40;;;;;;;6.80;3.30;;;16.00;1.00;;;;;;5037756;28;20450;-74
2022/09/20 09:26:16;;;;;;;5.23;2.97;;;16.00;1.00;;;;;;5045138;28;20804;-74
2022/09/20 09:29:08;;;;;;;6.73;2.73;;;16.30;1.00;;;;;;5050479;28;20415;-74
2022/09/20 09:31:35;;;;;;;17.83;2.70;;;16.60;1.00;;;;;;5045755;28;20445;-74
2022/09/20 09:34:01;;;;;;;7.50;2.27;;;16.80;1.00;;;;;;5053217;28;20394;-74
2022/09/20 09:36:42;;;;;;;4.97;2.20;;;16.80;1.00;;;;;;5050464;28;20541;-81
2022/09/20 09:39:39;;;;;;;6.77;2.30;;;16.80;1.00;;;;;;5050587;28;20435;-80
2022/09/20 09:42:27;;;;;;;6.30;2.10;;;16.80;1.00;;;;;;5015310;28;20482;-80
2022/09/20 09:45:25;;;;;;;6.07;2.50;;;16.80;1.00;;;;;;5015256;28;20478;-80
2022/09/20 09:47:52;;;;;;;3.53;2.20;;;17.00;1.00;;;;;;4956876;29;20494;-80
2022/09/20 09:50:30;;;;;;;2.47;1.73;;;16.90;1.00;;;;;;4956757;29;20430;-80
2022/09/20 09:53:08;;;;;;;6.63;2.27;;;16.90;1.00;;;;;;4956419;29;20449;-74
2022/09/20 09:56:02;;;;;;;5.60;2.27;;;16.90;1.00;;;;;;4956237;29;20437;-74
2022/09/20 09:59:23;;;;;;;5.97;2.03;;;16.70;1.00;;;;;;4951718;29;20424;-74
2022/09/20 10:02:12;;;;;;;7.30;2.30;;;16.70;1.00;;;;;;4864108;29;20435;-74
2022/09/20 10:04:54;;;;;;;7.17;1.93;;;16.70;1.00;;;;;;4867381;29;20471;-74
2022/09/20 10:07:27;;;;;;;11.03;1.70;;;17.00;1.00;;;;;;4862415;29;20448;-74
2022/09/20 10:10:01;;;;;;;14.63;2.20;;;17.30;1.00;;;;;;4863366;29;20906;-74
2022/09/20 10:12:33;;;;;;;8.73;2.00;;;17.60;1.00;;;;;;4856655;29;20409;-74
2022/09/20 10:15:14;;;;;;;2.50;1.40;;;17.90;1.00;;;;;;4866741;29;20461;-74
2022/09/20 10:17:52;;;;;;;3.40;1.23;;;18.20;1.00;;;;;;4872834;29;20412;-74
2022/09/20 10:20:27;;;;;;;7.23;1.93;;;18.50;1.00;;;;;;4917533;29;20425;-74
2022/09/20 10:23:36;;;;;;;4.40;1.97;;;21.10;1.00;;;;;;4916565;29;20437;-80
2022/09/20 10:26:36;;;;;;;2.60;1.50;;;18.60;1.00;;;;;;4970863;28;20420;-81
2022/09/20 10:29:15;;;;;;;7.50;1.90;;;18.30;1.00;;;;;;4968662;28;20391;-80
2022/09/20 10:32:25;;;;;;;8.87;1.70;;;18.10;1.00;;;;;;4975027;28;20426;-80
2022/09/20 10:38:23;;;;;;;2.37;1.37;;;17.70;1.00;;;;;;5039713;28;20407;-81
2022/09/20 10:44:18;;;;;;;2.80;1.20;;;18.00;1.00;;;;;;5041999;28;20426;-79
2022/09/20 10:47:08;;;;;;;1.80;1.00;;;18.10;1.00;;;;;;5035423;28;20393;-80
2022/09/20 10:53:20;;;;;;;8.13;1.90;;;18.90;1.00;;;;;;5049924;28;20429;-80
2022/09/20 10:56:17;;;;;;;3.50;1.27;;;19.10;1.00;;;;;;5040855;28;20458;-80
2022/09/20 10:59:10;;;;;;;6.67;1.30;;;19.10;1.00;;;;;;5049473;28;20414;-81
2022/09/20 11:02:13;;;;;;;2.80;1.10;;;19.10;1.00;;;;;;5046461;28;20863;-80
2022/09/20 11:04:54;;;;;;;3.83;1.00;;;19.10;1.00;;;;;;5036064;28;20418;-80
2022/09/20 11:07:45;;;;;;;9.37;1.80;;;19.30;1.00;;;;;;5036553;28;20428;-80
2022/09/20 11:10:24;;;;;;;4.10;1.13;;;19.50;1.00;;;;;;5045468;28;20393;-80
2022/09/20 11:13:14;;;;;;;3.67;1.40;;;19.50;1.00;;;;;;5046159;28;20446;-79
2022/09/20 11:16:07;;;;;;;2.23;0.90;;;19.50;1.00;;;;;;5043329;28;20465;-81
2022/09/20 11:19:10;;;;;;;1.37;1.00;;;19.40;1.00;;;;;;5046883;28;21023;-79
2022/09/20 11:21:47;;;;;;;4.07;1.10;;;19.00;1.00;;;;;;5048691;28;20421;-74
2022/09/20 11:24:41;;;;;;;6.07;1.30;;;19.20;1.00;;;;;;5046987;28;20406;-75
2022/09/20 11:27:19;;;;;;;6.13;1.20;;;19.30;1.00;;;;;;5036216;28;20508;-75
2022/09/20 11:30:22;;;;;;;6.20;1.17;;;18.90;1.00;;;;;;5053095;28;20432;-74
2022/09/20 11:32:47;;;;;;;6.30;1.50;;;18.90;1.00;;;;;;5047465;28;20412;-74
2022/09/20 11:35:26;;;;;;;3.37;1.13;;;18.70;1.00;;;;;;5046082;28;20862;-74
2022/09/20 11:38:15;;;;;;;4.00;1.57;;;18.60;1.00;;;;;;5044146;28;20175;-74
2022/09/20 11:41:04;;;;;;;1.93;1.27;;;18.50;1.00;;;;;;5045832;28;20456;-74
2022/09/20 11:43:30;;;;;;;4.43;1.67;;;18.00;1.00;;;;;;5037955;28;20433;-74
2022/09/20 11:46:05;;;;;;;3.07;1.60;;;17.90;1.00;;;;;;5051270;28;20447;-74
2022/09/20 11:48:46;;;;;;;10.97;1.67;;;17.90;1.00;;;;;;5048316;28;20976;-74
2022/09/20 11:51:34;;;;;;;7.43;2.57;;;17.90;1.00;;;;;;5053856;28;20447;-74
2022/09/20 11:58:08;;;;;;;8.10;1.77;;;18.00;1.00;;;;;;5042794;28;20752;-80
2022/09/20 12:00:45;;;;;;;5.80;2.07;;;18.50;1.00;;;;;;5040828;28;20415;-79
2022/09/20 12:03:40;;;;;;;6.20;2.00;;;19.10;1.00;;;;;;5043094;28;20417;-80
2022/09/20 12:06:19;;;;;;;6.60;2.33;;;19.50;1.00;;;;;;5036269;28;20478;-80
2022/09/20 12:08:49;;;;;;;6.87;2.17;;;19.50;1.00;;;;;;5041766;28;20392;-74
2022/09/20 12:11:25;;;;;;;2.90;1.80;;;19.40;1.00;;;;;;5041192;28;21068;-74
2022/09/20 12:14:24;;;;;;;4.50;2.00;;;19.10;1.00;;;;;;5047456;28;20450;-74
2022/09/20 12:16:51;;;;;;;5.20;2.57;;;18.60;1.00;;;;;;5040639;28;20556;-74
2022/09/20 12:19:32;;;;;;;8.60;2.60;;;18.30;1.00;;;;;;5049717;28;20400;-74
2022/09/20 12:22:27;;;;;;;13.20;2.30;;;18.30;1.00;;;;;;5042680;28;20504;-79
2022/09/20 12:25:49;;;;;;;2.33;1.60;;;18.00;1.00;;;;;;5045286;28;20421;-80
2022/09/20 12:28:35;;;;;;;2.33;1.13;;;17.60;1.00;;;;;;4933004;29;20442;-79
2022/09/20 12:31:41;;;;;;;3.33;1.20;;;17.70;1.00;;;;;;4934808;29;20409;-80
2022/09/20 12:34:12;;;;;;;5.30;1.20;;;17.70;1.00;;;;;;4933072;29;20453;-79
2022/09/20 12:36:43;;;;;;;12.07;1.70;;;17.80;1.00;;;;;;4933714;29;20441;-80
2022/09/20 12:39:10;;;;;;;4.30;1.37;;;17.70;1.00;;;;;;4934885;29;20459;-80
2022/09/20 12:42:00;;;;;;;3.00;1.20;;;17.80;1.00;;;;;;4930242;29;20446;-80
2022/09/20 12:45:11;;;;;;;3.70;1.13;;;17.80;1.00;;;;;;4934455;29;20203;-80
2022/09/20 12:47:54;;;;;;;1.57;1.07;;;17.80;1.00;;;;;;4925455;29;20420;-80
2022/09/20 12:53:29;;;;;;;1.77;1.20;;;17.80;1.00;;;;;;4933169;29;20475;-80
2022/09/20 12:56:21;;;;;;;3.60;1.53;;;17.70;1.00;;;;;;4934320;29;20478;-80
2022/09/20 12:58:52;;;;;;;6.83;1.43;;;17.60;1.00;;;;;;4931673;29;20478;-79
2022/09/20 13:01:34;;;;;;;1.13;1.13;;;17.50;1.00;;;;;;4934416;29;20787;-80
2022/09/20 13:04:37;;;;;;;4.97;1.37;;;17.40;1.00;;;;;;4956278;28;20439;-80
2022/09/20 13:10:32;;;;;;;3.93;1.57;;;17.20;1.00;;;;;;5043823;28;20409;-80
2022/09/20 13:13:26;;;;;;;3.10;1.90;;;17.20;1.00;;;;;;5048353;28;20755;-80
2022/09/20 13:15:56;;;;;;;5.43;1.70;;;16.90;1.00;;;;;;5041491;28;20463;-80
2022/09/20 13:18:24;;;;;;;14.93;1.97;;;16.70;1.00;;;;;;5049731;28;20411;-80
2022/09/20 13:20:56;;;;;;;4.23;1.80;;;16.80;1.00;;;;;;5042061;28;20407;-80
2022/09/20 13:23:28;;;;;;;3.90;1.80;;;16.80;1.00;;;;;;5041152;28;20466;-74
2022/09/20 13:25:57;;;;;;;3.10;1.87;;;16.80;1.00;;;;;;5051844;28;20419;-74
2022/09/20 13:28:28;;;;;;;8.37;1.90;;;16.70;1.00;;;;;;5040735;28;20432;-74
2022/09/20 13:31:23;;;;;;;6.93;1.83;;;16.70;1.00;;;;;;5051479;28;20408;-74
2022/09/20 13:33:49;;;;;;;4.60;2.10;;;16.80;1.00;;;;;;5038696;28;20425;-74
2022/09/20 13:36:23;;;;;;;3.20;2.00;;;16.90;1.00;;;;;;5045203;28;20463;-74
2022/09/20 13:38:48;;;;;;;3.00;1.80;;;17.00;1.00;;;;;;5041713;28;20711;-80
2022/09/20 13:41:18;;;;;;;4.30;1.90;;;16.80;1.00;;;;;;5040806;28;20557;-81
2022/09/20 13:43:49;;;;;;;7.67;2.00;;;16.90;1.00;;;;;;5047176;28;20227;-80
2022/09/20 13:46:23;;;;;;;7.67;1.80;;;16.90;1.00;;;;;;5043585;28;20410;-80
2022/09/20 13:48:58;;;;;;;3.40;1.70;;;16.80;1.00;;;;;;5036546;28;20444;-78
2022/09/20 13:51:27;;;;;;;4.33;1.90;;;16.80;1.00;;;;;;5048991;28;20444;-79
2022/09/20 13:54:31;;;;;;;3.00;1.90;;;16.80;1.00;;;;;;5033675;28;20394;-84
2022/09/20 14:00:31;;;;;;;2.50;1.30;;;17.20;1.00;;;;;;5050126;28;20490;-82
2022/09/20 14:03:16;;;;;;;1.70;1.57;;;17.30;1.00;;;;;;5041556;28;20412;-84
2022/09/20 14:05:47;;;;;;;5.23;2.13;;;17.30;1.00;;;;;;5052706;28;20416;-85
2022/09/20 14:08:42;;;;;;;2.47;1.37;;;17.40;1.00;;;;;;5046867;28;20418;-83
2022/09/20 14:11:22;;;;;;;2.03;1.40;;;17.50;1.00;;;;;;5044681;28;20546;-84
2022/09/20 14:14:03;;;;;;;1.63;1.20;;;17.50;1.00;;;;;;5041543;28;20544;-83
2022/09/20 14:16:45;;;;;;;1.37;1.10;;;17.60;1.00;;;;;;5046904;28;20814;-84
2022/09/20 14:19:28;;;;;;;2.30;1.60;;;17.60;1.00;;;;;;5044240;28;20403;-83
2022/09/20 14:25:37;;;;;;;4.43;1.90;;;17.70;1.00;;;;;;5051300;28;20553;-83
2022/09/20 14:28:19;;;;;;;5.70;1.90;;;18.10;1.00;;;;;;5038836;28;20436;-83
2022/09/20 14:30:48;;;;;;;5.20;1.77;;;18.40;1.00;;;;;;5058824;28;20434;-83
2022/09/20 14:34:00;;;;;;;1.93;1.60;;;18.50;1.00;;;;;;5053844;28;20779;-84
2022/09/20 14:36:42;;;;;;;4.90;1.80;;;18.20;1.00;;;;;;5042341;28;20827;-85
2022/09/20 14:42:45;;;;;;;6.93;1.87;;;18.10;1.00;;;;;;5053032;28;20478;-88
2022/09/20 14:48:44;;;;;;;3.67;1.70;;;18.10;1.00;;;;;;5054749;28;20405;-88
2022/09/20 14:51:36;;;;;;;8.20;1.87;;;18.10;1.00;;;;;;5045696;28;20416;-89
2022/09/20 14:54:05;;;;;;;1.73;1.57;;;18.10;1.00;;;;;;5039239;28;20459;-84
2022/09/20 14:56:39;;;;;;;4.50;2.10;;;18.00;1.00;;;;;;5039912;28;20472;-82
2022/09/20 14:59:12;;;;;;;2.03;1.50;;;18.00;1.00;;;;;;5047267;28;20404;-85
2022/09/20 15:02:14;;;;;;;5.80;1.40;;;18.00;1.00;;;;;;5053414;28;20472;-84
2022/09/20 15:05:30;;;;;;;1.63;1.50;;;18.10;1.00;;;;;;4974552;28;20458;-84
2022/09/20 15:08:14;;;;;;;8.40;1.37;;;17.80;1.00;;;;;;4974730;28;20407;-84
2022/09/20 15:11:06;;;;;;;1.60;1.30;;;17.80;1.00;;;;;;4975845;28;20493;-86
2022/09/20 15:16:53;;;;;;;2.30;1.20;;;18.80;1.00;;;;;;4978936;28;20471;-87
2022/09/20 15:19:48;;;;;;;2.17;1.60;;;19.20;1.00;;;;;;4972252;28;20452;-86
2022/09/20 15:22:48;;;;;;;1.63;1.27;;;19.80;1.00;;;;;;4958789;28;20421;-85
2022/09/20 15:25:36;;;;;;;2.23;1.23;;;20.30;1.00;;;;;;4974332;28;20442;-82
2022/09/20 15:28:16;;;;;;;2.20;1.20;;;20.70;1.00;;;;;;4957944;28;20423;-82
2022/09/20 15:30:50;;;;;;;4.80;1.10;;;21.30;1.00;;;;;;4954304;28;20464;-85
2022/09/20 15:33:17;;;;;;;1.80;1.10;;;21.40;1.00;;;;;;4956072;28;20437;-86
2022/09/20 15:36:12;;;;;;;2.20;1.40;;;22.30;1.00;;;;;;4970658;28;20941;-86